Time,TemperatureF,DewpointF,PressureIn,WindDirection,WindDirectionDegrees,WindSpeedMPH,WindSpeedGustMPH,Humidity,HourlyPrecipIn,Conditions,Clouds,dailyrainin,SoftwareType,DateUTC
2014-08-29 00:24:00,66.0,62.0,-100.00,NNE,15,2.0,4.0,86,0.00,,,-99.99,,2014-08-29 04:24:00,
2014-08-29 00:53:00,66.0,62.0,-100.00,NNE,25,1.0,3.0,87,0.00,,,-99.99,,2014-08-29 04:53:00,
2014-08-29 01:23:00,64.0,62.0,-100.00,NNE,25,0.0,2.0,93,0.00,,,-99.99,,2014-08-29 05:23:00,
2014-08-29 01:53:00,64.0,62.0,-100.00,NNE,15,0.0,1.0,94,0.00,,,-99.99,,2014-08-29 05:53:00,
2014-08-29 02:22:00,64.0,62.0,-100.00,NNE,25,0.0,1.0,95,0.00,,,-99.99,,2014-08-29 06:22:00,
2014-08-29 02:53:00,63.0,61.0,-100.00,NNE,25,0.0,2.0,93,0.00,,,-99.99,,2014-08-29 06:53:00,
2014-08-29 03:52:00,63.0,60.0,-100.00,NNE,30,1.0,1.0,93,0.00,,,-99.99,,2014-08-29 07:52:00,
2014-08-29 04:53:00,62.0,60.0,-100.00,ENE,60,0.0,2.0,93,0.00,,,-99.99,,2014-08-29 08:53:00,
2014-08-29 05:22:00,62.0,60.0,-100.00,NE,40,1.0,2.0,93,0.00,,,-99.99,,2014-08-29 09:22:00,
2014-08-29 05:53:00,61.0,59.0,-100.00,NE,40,0.0,2.0,93,0.00,,,-99.99,,2014-08-29 09:53:00,
2014-08-29 07:53:00,61.0,59.0,-100.00,NE,35,1.0,3.0,92,0.00,,,-99.99,,2014-08-29 11:53:00,
2014-08-29 08:22:00,62.0,59.0,-100.00,NE,35,1.0,3.0,90,0.00,,,-99.99,,2014-08-29 12:22:00,
2014-08-29 08:52:00,64.0,59.0,-100.00,NE,50,2.0,4.0,84,0.00,,,-99.99,,2014-08-29 12:52:00,
2014-08-29 09:52:00,69.0,58.0,-100.00,NE,50,4.0,7.0,68,0.00,,,-99.99,,2014-08-29 13:52:00,
2014-08-29 10:23:00,71.0,60.0,-100.00,NNE,25,2.0,7.0,66,0.00,,,-99.99,,2014-08-29 14:23:00,
2014-08-29 10:32:00,71.0,60.0,-100.00,NNE,25,2.0,7.0,66,0.00,,,-99.99,,2014-08-29 14:32:00,
2014-08-29 11:54:00,76.0,63.0,-100.00,SE,140,2.0,6.0,63,0.00,,,-99.99,,2014-08-29 15:54:00,
2014-08-29 12:54:00,78.0,64.0,-100.00,NE,35,2.0,7.0,62,0.00,,,-99.99,,2014-08-29 16:54:00,
2014-08-29 13:24:00,79.0,64.0,-100.00,NE,45,4.0,6.0,59,0.00,,,-99.99,,2014-08-29 17:24:00,
2014-08-29 13:54:00,80.0,64.0,-100.00,NE,45,2.0,6.0,57,0.00,,,-99.99,,2014-08-29 17:54:00,
2014-08-29 14:23:00,81.0,62.0,-100.00,East,100,1.0,7.0,52,0.00,,,-99.99,,2014-08-29 18:23:00,
2014-08-29 15:22:00,83.0,63.0,-100.00,NE,45,3.0,7.0,52,0.00,,,-99.99,,2014-08-29 19:22:00,
2014-08-29 16:23:00,85.0,61.0,-100.00,South,190,3.0,8.0,45,0.00,,,-99.99,,2014-08-29 20:23:00,
2014-08-29 17:22:00,86.0,62.0,-100.00,WSW,240,2.0,5.0,45,0.00,,,-99.99,,2014-08-29 21:22:00,
2014-08-29 17:54:00,86.0,64.0,-100.00,ENE,75,1.0,4.0,48,0.00,,,-99.99,,2014-08-29 21:54:00,
2014-08-29 18:23:00,85.0,64.0,-100.00,NNE,25,1.0,4.0,49,0.00,,,-99.99,,2014-08-29 22:23:00,
2014-08-29 18:53:00,84.0,66.0,-100.00,NNE,20,1.0,4.0,56,0.00,,,-99.99,,2014-08-29 22:53:00,
2014-08-29 19:23:00,83.0,66.0,-100.00,East,85,0.0,2.0,55,0.00,,,-99.99,,2014-08-29 23:23:00,
2014-08-29 19:53:00,82.0,66.0,-100.00,NNE,25,0.0,1.0,59,0.00,,,-99.99,,2014-08-29 23:53:00,
2014-08-29 20:12:00,80.0,65.0,-100.00,NE,50,1.0,3.0,60,0.00,,,-99.99,,2014-08-30 00:12:00,
2014-08-29 22:23:00,75.0,66.0,-100.00,North,0,0.0,1.0,73,0.00,,,-99.99,,2014-08-30 02:23:00,
2014-08-29 22:52:00,74.0,65.0,-100.00,NE,55,0.0,0.0,73,0.00,,,-99.99,,2014-08-30 02:52:00,
2014-08-29 23:22:00,74.0,65.0,-100.00,East,95,0.0,1.0,75,0.00,,,-99.99,,2014-08-30 03:22:00,